sensor_id;sensor_type;location;lat;lon;timestamp;P1;durP1;ratioP1;P2;durP2;ratioP2
39276;SDS011;63149;48.086;-1.606;2022-09-09T05:00:41;14.93;;;2.65;;
39276;SDS011;63149;48.086;-1.606;2022-09-09T05:03:08;16.27;;;2.65;;
39276;SDS011;63149;48.086;-1.606;2022-09-09T05:05:35;11.60;;;2.53;;
39276;SDS011;63149;48.086;-1.606;2022-09-09T05:08:02;12.20;;;2.95;;
39276;SDS011;63149;48.086;-1.606;2022-09-09T05:10:29;17.23;;;3.15;;
39276;SDS011;63149;48.086;-1.606;2022-09-09T05:12:57;9.27;;;2.70;;
39276;SDS011;63149;48.086;-1.606;2022-09-09T05:15:24;14.02;;;3.47;;
39276;SDS011;63149;48.086;-1.606;2022-09-09T05:17:52;20.15;;;3.08;;
39276;SDS011;63149;48.086;-1.606;2022-09-09T05:20:22;20.30;;;4.10;;
39276;SDS011;63149;48.086;-1.606;2022-09-09T05:22:52;24.08;;;3.15;;
39276;SDS011;63149;48.086;-1.606;2022-09-09T05:25:19;13.30;;;2.85;;
39276;SDS011;63149;48.086;-1.606;2022-09-09T05:27:47;21.30;;;3.72;;
39276;SDS011;63149;48.086;-1.606;2022-09-09T05:30:14;18.00;;;2.75;;
39276;SDS011;63149;48.086;-1.606;2022-09-09T05:32:41;13.75;;;2.50;;
39276;SDS011;63149;48.086;-1.606;2022-09-09T05:35:10;20.88;;;3.65;;
39276;SDS011;63149;48.086;-1.606;2022-09-09T05:37:38;15.70;;;3.35;;
39276;SDS011;63149;48.086;-1.606;2022-09-09T05:40:05;16.73;;;3.28;;
39276;SDS011;63149;48.086;-1.606;2022-09-09T05:42:33;17.95;;;3.33;;
39276;SDS011;63149;48.086;-1.606;2022-09-09T05:45:00;15.68;;;2.92;;
39276;SDS011;63149;48.086;-1.606;2022-09-09T05:47:27;18.27;;;3.22;;
39276;SDS011;63149;48.086;-1.606;2022-09-09T05:49:54;13.32;;;3.00;;
39276;SDS011;63149;48.086;-1.606;2022-09-09T05:52:22;22.02;;;3.90;;
39276;SDS011;63149;48.086;-1.606;2022-09-09T05:54:51;24.67;;;3.85;;
39276;SDS011;63149;48.086;-1.606;2022-09-09T05:57:20;19.48;;;3.38;;
39276;SDS011;63149;48.086;-1.606;2022-09-09T05:59:46;14.52;;;3.20;;
39276;SDS011;63149;48.086;-1.606;2022-09-09T06:02:14;24.73;;;4.18;;
39276;SDS011;63149;48.086;-1.606;2022-09-09T06:04:41;22.63;;;3.90;;
39276;SDS011;63149;48.086;-1.606;2022-09-09T06:07:08;17.27;;;3.33;;
39276;SDS011;63149;48.086;-1.606;2022-09-09T06:09:37;16.83;;;3.33;;
39276;SDS011;63149;48.086;-1.606;2022-09-09T06:12:04;18.17;;;3.20;;
39276;SDS011;63149;48.086;-1.606;2022-09-09T06:14:31;16.33;;;3.20;;
39276;SDS011;63149;48.086;-1.606;2022-09-09T06:16:58;21.15;;;3.47;;
39276;SDS011;63149;48.086;-1.606;2022-09-09T06:19:25;18.20;;;3.47;;
39276;SDS011;63149;48.086;-1.606;2022-09-09T06:21:52;24.10;;;3.85;;
39276;SDS011;63149;48.086;-1.606;2022-09-09T06:24:19;21.63;;;3.15;;
39276;SDS011;63149;48.086;-1.606;2022-09-09T06:26:48;22.77;;;3.47;;
39276;SDS011;63149;48.086;-1.606;2022-09-09T06:29:15;12.02;;;2.80;;
39276;SDS011;63149;48.086;-1.606;2022-09-09T06:31:42;21.55;;;3.03;;
39276;SDS011;63149;48.086;-1.606;2022-09-09T06:34:09;14.20;;;3.28;;
39276;SDS011;63149;48.086;-1.606;2022-09-09T06:36:37;17.48;;;3.83;;
39276;SDS011;63149;48.086;-1.606;2022-09-09T06:39:04;16.92;;;3.03;;
39276;SDS011;63149;48.086;-1.606;2022-09-09T06:41:33;22.55;;;3.40;;
39276;SDS011;63149;48.086;-1.606;2022-09-09T06:44:02;12.55;;;3.58;;
39276;SDS011;63149;48.086;-1.606;2022-09-09T06:46:30;16.13;;;2.97;;
39276;SDS011;63149;48.086;-1.606;2022-09-09T06:49:01;23.75;;;4.30;;
39276;SDS011;63149;48.086;-1.606;2022-09-09T06:51:29;18.38;;;3.70;;
39276;SDS011;63149;48.086;-1.606;2022-09-09T06:53:58;12.65;;;2.55;;
39276;SDS011;63149;48.086;-1.606;2022-09-09T06:56:27;16.92;;;2.97;;
39276;SDS011;63149;48.086;-1.606;2022-09-09T06:58:56;16.77;;;3.10;;
39276;SDS011;63149;48.086;-1.606;2022-09-09T07:01:28;16.67;;;3.42;;
39276;SDS011;63149;48.086;-1.606;2022-09-09T07:03:57;14.90;;;2.75;;
39276;SDS011;63149;48.086;-1.606;2022-09-09T07:06:25;13.18;;;3.30;;
39276;SDS011;63149;48.086;-1.606;2022-09-09T07:08:53;19.88;;;3.65;;
39276;SDS011;63149;48.086;-1.606;2022-09-09T07:11:21;18.85;;;3.97;;
39276;SDS011;63149;48.086;-1.606;2022-09-09T07:13:50;17.85;;;3.53;;
39276;SDS011;63149;48.086;-1.606;2022-09-09T07:16:18;23.95;;;3.75;;
39276;SDS011;63149;48.086;-1.606;2022-09-09T07:18:49;26.15;;;4.18;;
39276;SDS011;63149;48.086;-1.606;2022-09-09T07:21:17;19.90;;;3.53;;
39276;SDS011;63149;48.086;-1.606;2022-09-09T07:23:46;20.05;;;3.40;;
39276;SDS011;63149;48.086;-1.606;2022-09-09T07:26:14;14.48;;;3.00;;
39276;SDS011;63149;48.086;-1.606;2022-09-09T07:28:42;15.27;;;3.08;;
39276;SDS011;63149;48.086;-1.606;2022-09-09T07:31:13;15.40;;;3.33;;
39276;SDS011;63149;48.086;-1.606;2022-09-09T07:33:42;21.27;;;3.53;;
39276;SDS011;63149;48.086;-1.606;2022-09-09T07:36:12;13.43;;;2.42;;
39276;SDS011;63149;48.086;-1.606;2022-09-09T07:41:09;14.23;;;2.00;;
39276;SDS011;63149;48.086;-1.606;2022-09-09T07:43:38;12.95;;;2.72;;
39276;SDS011;63149;48.086;-1.606;2022-09-09T07:46:06;10.65;;;2.63;;
39276;SDS011;63149;48.086;-1.606;2022-09-09T07:48:33;11.32;;;2.75;;
39276;SDS011;63149;48.086;-1.606;2022-09-09T07:51:04;12.10;;;2.88;;
39276;SDS011;63149;48.086;-1.606;2022-09-09T07:53:34;15.38;;;3.05;;
39276;SDS011;63149;48.086;-1.606;2022-09-09T07:56:04;13.65;;;3.03;;
39276;SDS011;63149;48.086;-1.606;2022-09-09T07:58:32;10.50;;;2.95;;
39276;SDS011;63149;48.086;-1.606;2022-09-09T08:00:59;16.38;;;3.00;;
39276;SDS011;63149;48.086;-1.606;2022-09-09T08:03:26;12.45;;;2.53;;
39276;SDS011;63149;48.086;-1.606;2022-09-09T08:05:59;15.80;;;2.72;;
39276;SDS011;63149;48.086;-1.606;2022-09-09T08:08:27;11.77;;;2.50;;
39276;SDS011;63149;48.086;-1.606;2022-09-09T08:11:02;10.75;;;2.10;;
39276;SDS011;63149;48.086;-1.606;2022-09-09T08:13:30;9.20;;;2.85;;
39276;SDS011;63149;48.086;-1.606;2022-09-09T08:16:03;9.63;;;2.50;;
39276;SDS011;63149;48.086;-1.606;2022-09-09T08:18:32;20.13;;;2.67;;
39276;SDS011;63149;48.086;-1.606;2022-09-09T08:21:04;12.63;;;2.53;;
39276;SDS011;63149;48.086;-1.606;2022-09-09T08:23:37;18.40;;;2.30;;
39276;SDS011;63149;48.086;-1.606;2022-09-09T08:26:06;14.50;;;2.38;;
39276;SDS011;63149;48.086;-1.606;2022-09-09T08:28:36;11.75;;;2.70;;
39276;SDS011;63149;48.086;-1.606;2022-09-09T08:31:05;16.05;;;2.40;;
39276;SDS011;63149;48.086;-1.606;2022-09-09T08:33:33;9.55;;;2.05;;
39276;SDS011;63149;48.086;-1.606;2022-09-09T08:36:02;10.98;;;2.42;;
39276;SDS011;63149;48.086;-1.606;2022-09-09T08:38:29;18.02;;;2.75;;
39276;SDS011;63149;48.086;-1.606;2022-09-09T08:40:58;16.00;;;3.08;;
39276;SDS011;63149;48.086;-1.606;2022-09-09T08:43:34;8.98;;;1.70;;
39276;SDS011;63149;48.086;-1.606;2022-09-09T08:46:02;13.85;;;2.40;;
39276;SDS011;63149;48.086;-1.606;2022-09-09T08:48:43;21.60;;;2.70;;
39276;SDS011;63149;48.086;-1.606;2022-09-09T08:51:17;10.23;;;2.30;;
39276;SDS011;63149;48.086;-1.606;2022-09-09T08:53:46;10.63;;;3.30;;
39276;SDS011;63149;48.086;-1.606;2022-09-09T08:56:18;16.02;;;2.70;;
39276;SDS011;63149;48.086;-1.606;2022-09-09T08:58:49;13.15;;;2.45;;
39276;SDS011;63149;48.086;-1.606;2022-09-09T09:01:22;7.32;;;1.63;;
39276;SDS011;63149;48.086;-1.606;2022-09-09T09:04:13;18.65;;;3.20;;
39276;SDS011;63149;48.086;-1.606;2022-09-09T09:06:50;12.82;;;2.28;;
39276;SDS011;63149;48.086;-1.606;2022-09-09T09:09:29;12.48;;;2.15;;
39276;SDS011;63149;48.086;-1.606;2022-09-09T09:12:06;6.78;;;1.63;;
39276;SDS011;63149;48.086;-1.606;2022-09-09T09:14:42;13.85;;;2.10;;
39276;SDS011;63149;48.086;-1.606;2022-09-09T09:17:11;8.88;;;1.80;;
39276;SDS011;63149;48.086;-1.606;2022-09-09T09:19:41;13.52;;;2.28;;
39276;SDS011;63149;48.086;-1.606;2022-09-09T09:22:11;15.57;;;1.95;;
39276;SDS011;63149;48.086;-1.606;2022-09-09T09:24:44;8.93;;;2.10;;
39276;SDS011;63149;48.086;-1.606;2022-09-09T09:27:18;10.98;;;2.13;;
39276;SDS011;63149;48.086;-1.606;2022-09-09T09:29:55;9.85;;;2.40;;
39276;SDS011;63149;48.086;-1.606;2022-09-09T09:32:24;9.43;;;2.00;;
39276;SDS011;63149;48.086;-1.606;2022-09-09T09:34:54;13.27;;;2.28;;
39276;SDS011;63149;48.086;-1.606;2022-09-09T09:37:25;9.05;;;1.85;;
39276;SDS011;63149;48.086;-1.606;2022-09-09T09:39:55;16.52;;;2.20;;
39276;SDS011;63149;48.086;-1.606;2022-09-09T09:42:22;9.90;;;2.20;;
39276;SDS011;63149;48.086;-1.606;2022-09-09T09:44:49;11.52;;;1.83;;
39276;SDS011;63149;48.086;-1.606;2022-09-09T09:47:19;12.50;;;2.03;;
39276;SDS011;63149;48.086;-1.606;2022-09-09T09:49:51;13.27;;;2.17;;
39276;SDS011;63149;48.086;-1.606;2022-09-09T09:52:21;8.95;;;2.15;;
39276;SDS011;63149;48.086;-1.606;2022-09-09T09:54:49;9.67;;;2.27;;
39276;SDS011;63149;48.086;-1.606;2022-09-09T09:57:18;9.15;;;1.90;;
39276;SDS011;63149;48.086;-1.606;2022-09-09T10:00:00;9.75;;;1.67;;
39276;SDS011;63149;48.086;-1.606;2022-09-09T10:02:38;15.85;;;2.85;;
39276;SDS011;63149;48.086;-1.606;2022-09-09T10:05:12;13.27;;;1.90;;
39276;SDS011;63149;48.086;-1.606;2022-09-09T10:07:41;8.02;;;1.88;;
39276;SDS011;63149;48.086;-1.606;2022-09-09T10:10:12;10.45;;;2.28;;
39276;SDS011;63149;48.086;-1.606;2022-09-09T10:15:19;9.45;;;2.53;;
39276;SDS011;63149;48.086;-1.606;2022-09-09T10:18:06;7.68;;;1.67;;
39276;SDS011;63149;48.086;-1.606;2022-09-09T10:20:45;8.60;;;1.77;;
39276;SDS011;63149;48.086;-1.606;2022-09-09T10:23:24;7.35;;;1.83;;
39276;SDS011;63149;48.086;-1.606;2022-09-09T10:26:08;13.55;;;2.35;;
39276;SDS011;63149;48.086;-1.606;2022-09-09T10:28:55;9.75;;;2.28;;
39276;SDS011;63149;48.086;-1.606;2022-09-09T10:31:38;11.55;;;2.05;;
39276;SDS011;63149;48.086;-1.606;2022-09-09T10:34:19;15.48;;;2.10;;
39276;SDS011;63149;48.086;-1.606;2022-09-09T10:36:56;9.52;;;1.80;;
39276;SDS011;63149;48.086;-1.606;2022-09-09T10:39:29;12.40;;;2.13;;
39276;SDS011;63149;48.086;-1.606;2022-09-09T10:42:03;14.45;;;2.10;;
39276;SDS011;63149;48.086;-1.606;2022-09-09T10:44:37;9.32;;;2.40;;
39276;SDS011;63149;48.086;-1.606;2022-09-09T10:47:16;11.75;;;1.83;;
39276;SDS011;63149;48.086;-1.606;2022-09-09T10:50:02;5.97;;;2.17;;
39276;SDS011;63149;48.086;-1.606;2022-09-09T10:52:40;8.77;;;1.70;;
39276;SDS011;63149;48.086;-1.606;2022-09-09T10:55:13;6.55;;;1.50;;
39276;SDS011;63149;48.086;-1.606;2022-09-09T10:57:42;10.07;;;1.80;;
39276;SDS011;63149;48.086;-1.606;2022-09-09T11:00:14;5.03;;;1.40;;
39276;SDS011;63149;48.086;-1.606;2022-09-09T11:02:44;6.38;;;1.80;;
39276;SDS011;63149;48.086;-1.606;2022-09-09T11:05:19;5.93;;;1.70;;
39276;SDS011;63149;48.086;-1.606;2022-09-09T11:07:48;4.70;;;1.30;;
39276;SDS011;63149;48.086;-1.606;2022-09-09T11:10:21;8.32;;;1.30;;
39276;SDS011;63149;48.086;-1.606;2022-09-09T11:12:52;4.57;;;1.35;;
39276;SDS011;63149;48.086;-1.606;2022-09-09T11:15:26;5.22;;;1.50;;
39276;SDS011;63149;48.086;-1.606;2022-09-09T11:17:58;6.90;;;1.52;;
39276;SDS011;63149;48.086;-1.606;2022-09-09T11:20:32;5.50;;;1.30;;
39276;SDS011;63149;48.086;-1.606;2022-09-09T11:23:00;4.88;;;1.67;;
39276;SDS011;63149;48.086;-1.606;2022-09-09T11:25:32;4.57;;;1.50;;
39276;SDS011;63149;48.086;-1.606;2022-09-09T11:28:16;7.07;;;1.55;;
39276;SDS011;63149;48.086;-1.606;2022-09-09T11:30:57;7.50;;;1.27;;
39276;SDS011;63149;48.086;-1.606;2022-09-09T11:33:52;6.18;;;1.65;;
39276;SDS011;63149;48.086;-1.606;2022-09-09T11:36:34;4.63;;;1.30;;
39276;SDS011;63149;48.086;-1.606;2022-09-09T11:42:39;7.32;;;2.03;;
39276;SDS011;63149;48.086;-1.606;2022-09-09T11:45:10;4.82;;;1.35;;
39276;SDS011;63149;48.086;-1.606;2022-09-09T11:47:51;6.43;;;1.40;;
39276;SDS011;63149;48.086;-1.606;2022-09-09T11:50:27;5.65;;;1.55;;
39276;SDS011;63149;48.086;-1.606;2022-09-09T11:53:05;5.25;;;1.60;;
39276;SDS011;63149;48.086;-1.606;2022-09-09T11:55:47;6.97;;;1.58;;
39276;SDS011;63149;48.086;-1.606;2022-09-09T11:58:26;7.93;;;1.42;;
39276;SDS011;63149;48.086;-1.606;2022-09-09T12:00:57;7.10;;;1.88;;
39276;SDS011;63149;48.086;-1.606;2022-09-09T12:03:39;7.15;;;1.67;;
39276;SDS011;63149;48.086;-1.606;2022-09-09T12:06:10;10.32;;;1.80;;
39276;SDS011;63149;48.086;-1.606;2022-09-09T12:08:43;5.97;;;1.38;;
39276;SDS011;63149;48.086;-1.606;2022-09-09T12:11:11;6.93;;;1.55;;
39276;SDS011;63149;48.086;-1.606;2022-09-09T12:13:52;3.53;;;1.30;;
39276;SDS011;63149;48.086;-1.606;2022-09-09T12:16:27;8.30;;;1.50;;
39276;SDS011;63149;48.086;-1.606;2022-09-09T12:19:14;7.50;;;1.30;;
39276;SDS011;63149;48.086;-1.606;2022-09-09T12:21:44;1.48;;;0.80;;
39276;SDS011;63149;48.086;-1.606;2022-09-09T12:24:19;3.58;;;0.88;;
39276;SDS011;63149;48.086;-1.606;2022-09-09T12:26:54;3.10;;;1.13;;
39276;SDS011;63149;48.086;-1.606;2022-09-09T12:29:26;3.92;;;1.30;;
39276;SDS011;63149;48.086;-1.606;2022-09-09T12:31:59;3.85;;;1.05;;
39276;SDS011;63149;48.086;-1.606;2022-09-09T12:34:36;3.40;;;1.50;;
39276;SDS011;63149;48.086;-1.606;2022-09-09T12:37:08;5.78;;;1.27;;
39276;SDS011;63149;48.086;-1.606;2022-09-09T12:39:45;7.72;;;1.40;;
39276;SDS011;63149;48.086;-1.606;2022-09-09T12:42:17;7.97;;;1.60;;
39276;SDS011;63149;48.086;-1.606;2022-09-09T12:44:52;4.78;;;1.30;;
39276;SDS011;63149;48.086;-1.606;2022-09-09T12:47:20;5.32;;;1.40;;
39276;SDS011;63149;48.086;-1.606;2022-09-09T12:49:50;4.83;;;1.23;;
39276;SDS011;63149;48.086;-1.606;2022-09-09T12:52:24;5.40;;;1.52;;
39276;SDS011;63149;48.086;-1.606;2022-09-09T12:54:57;7.97;;;1.98;;
39276;SDS011;63149;48.086;-1.606;2022-09-09T12:57:26;7.53;;;1.80;;
39276;SDS011;63149;48.086;-1.606;2022-09-09T13:00:04;4.63;;;1.30;;
39276;SDS011;63149;48.086;-1.606;2022-09-09T13:02:35;4.00;;;1.17;;
39276;SDS011;63149;48.086;-1.606;2022-09-09T13:05:13;5.28;;;1.50;;
39276;SDS011;63149;48.086;-1.606;2022-09-09T13:07:43;6.00;;;1.50;;
39276;SDS011;63149;48.086;-1.606;2022-09-09T13:10:12;6.68;;;1.25;;
39276;SDS011;63149;48.086;-1.606;2022-09-09T13:12:40;5.45;;;1.30;;
39276;SDS011;63149;48.086;-1.606;2022-09-09T13:15:12;4.75;;;1.30;;
39276;SDS011;63149;48.086;-1.606;2022-09-09T13:17:49;6.45;;;1.40;;
39276;SDS011;63149;48.086;-1.606;2022-09-09T13:20:20;3.78;;;1.02;;
39276;SDS011;63149;48.086;-1.606;2022-09-09T13:22:48;4.78;;;1.40;;
39276;SDS011;63149;48.086;-1.606;2022-09-09T13:25:20;10.57;;;1.58;;
39276;SDS011;63149;48.086;-1.606;2022-09-09T13:27:52;5.60;;;1.40;;
39276;SDS011;63149;48.086;-1.606;2022-09-09T13:30:24;8.48;;;1.60;;
39276;SDS011;63149;48.086;-1.606;2022-09-09T13:33:00;7.55;;;1.50;;
39276;SDS011;63149;48.086;-1.606;2022-09-09T13:35:49;6.82;;;1.30;;
39276;SDS011;63149;48.086;-1.606;2022-09-09T13:38:18;3.15;;;1.17;;
39276;SDS011;63149;48.086;-1.606;2022-09-09T13:40:55;9.55;;;1.83;;
39276;SDS011;63149;48.086;-1.606;2022-09-09T13:43:24;4.57;;;1.20;;
39276;SDS011;63149;48.086;-1.606;2022-09-09T13:45:53;5.63;;;1.05;;
39276;SDS011;63149;48.086;-1.606;2022-09-09T13:48:23;7.10;;;1.38;;
39276;SDS011;63149;48.086;-1.606;2022-09-09T13:50:54;9.05;;;1.65;;
39276;SDS011;63149;48.086;-1.606;2022-09-09T13:53:25;6.35;;;1.30;;
39276;SDS011;63149;48.086;-1.606;2022-09-09T13:55:52;6.80;;;1.40;;
39276;SDS011;63149;48.086;-1.606;2022-09-09T13:58:21;4.32;;;1.60;;
39276;SDS011;63149;48.086;-1.606;2022-09-09T14:00:50;5.72;;;2.15;;
39276;SDS011;63149;48.086;-1.606;2022-09-09T14:03:17;7.40;;;1.60;;
39276;SDS011;63149;48.086;-1.606;2022-09-09T14:05:45;4.95;;;1.63;;
39276;SDS011;63149;48.086;-1.606;2022-09-09T14:08:16;6.03;;;1.20;;
39276;SDS011;63149;48.086;-1.606;2022-09-09T14:10:48;6.93;;;1.10;;
39276;SDS011;63149;48.086;-1.606;2022-09-09T14:13:17;4.18;;;1.10;;
39276;SDS011;63149;48.086;-1.606;2022-09-09T14:15:47;4.00;;;1.10;;
39276;SDS011;63149;48.086;-1.606;2022-09-09T14:18:14;4.10;;;1.08;;
39276;SDS011;63149;48.086;-1.606;2022-09-09T14:20:41;7.18;;;2.00;;
39276;SDS011;63149;48.086;-1.606;2022-09-09T14:23:10;4.90;;;1.50;;
39276;SDS011;63149;48.086;-1.606;2022-09-09T14:25:41;4.50;;;1.30;;
39276;SDS011;63149;48.086;-1.606;2022-09-09T14:28:11;3.10;;;1.10;;
39276;SDS011;63149;48.086;-1.606;2022-09-09T14:30:41;3.67;;;1.25;;
39276;SDS011;63149;48.086;-1.606;2022-09-09T14:33:10;4.32;;;1.17;;
39276;SDS011;63149;48.086;-1.606;2022-09-09T14:35:38;4.85;;;1.20;;
39276;SDS011;63149;48.086;-1.606;2022-09-09T14:38:06;6.25;;;1.40;;
39276;SDS011;63149;48.086;-1.606;2022-09-09T14:40:34;2.65;;;1.20;;
39276;SDS011;63149;48.086;-1.606;2022-09-09T14:43:01;5.63;;;1.55;;
39276;SDS011;63149;48.086;-1.606;2022-09-09T14:45:29;5.70;;;1.20;;
39276;SDS011;63149;48.086;-1.606;2022-09-09T14:47:57;2.88;;;1.30;;
39276;SDS011;63149;48.086;-1.606;2022-09-09T14:50:24;5.53;;;1.20;;
39276;SDS011;63149;48.086;-1.606;2022-09-09T14:52:51;1.52;;;1.00;;
39276;SDS011;63149;48.086;-1.606;2022-09-09T14:55:18;4.85;;;1.40;;
39276;SDS011;63149;48.086;-1.606;2022-09-09T14:57:46;2.67;;;1.08;;
39276;SDS011;63149;48.086;-1.606;2022-09-09T15:00:13;2.30;;;0.90;;
39276;SDS011;63149;48.086;-1.606;2022-09-09T15:02:41;4.05;;;1.20;;
39276;SDS011;63149;48.086;-1.606;2022-09-09T15:05:09;4.30;;;0.95;;
39276;SDS011;63149;48.086;-1.606;2022-09-09T15:07:36;4.35;;;0.98;;
39276;SDS011;63149;48.086;-1.606;2022-09-09T15:10:03;5.22;;;1.00;;
39276;SDS011;63149;48.086;-1.606;2022-09-09T15:12:31;2.38;;;0.82;;
39276;SDS011;63149;48.086;-1.606;2022-09-09T15:15:00;2.50;;;0.90;;
39276;SDS011;63149;48.086;-1.606;2022-09-09T15:17:28;4.75;;;1.10;;
39276;SDS011;63149;48.086;-1.606;2022-09-09T15:19:55;4.80;;;1.00;;
39276;SDS011;63149;48.086;-1.606;2022-09-09T15:22:23;5.38;;;1.40;;
39276;SDS011;63149;48.086;-1.606;2022-09-09T15:24:50;5.55;;;1.40;;
39276;SDS011;63149;48.086;-1.606;2022-09-09T15:27:17;6.43;;;1.48;;
39276;SDS011;63149;48.086;-1.606;2022-09-09T15:29:44;9.23;;;1.17;;
39276;SDS011;63149;48.086;-1.606;2022-09-09T15:32:11;3.97;;;1.08;;
39276;SDS011;63149;48.086;-1.606;2022-09-09T15:34:38;7.70;;;1.30;;
39276;SDS011;63149;48.086;-1.606;2022-09-09T15:37:06;5.10;;;1.38;;
39276;SDS011;63149;48.086;-1.606;2022-09-09T15:39:37;6.50;;;1.40;;
39276;SDS011;63149;48.086;-1.606;2022-09-09T15:42:04;4.25;;;1.48;;
39276;SDS011;63149;48.086;-1.606;2022-09-09T15:44:37;5.80;;;2.17;;
39276;SDS011;63149;48.086;-1.606;2022-09-09T15:47:05;4.07;;;1.00;;
39276;SDS011;63149;48.086;-1.606;2022-09-09T15:49:32;7.53;;;1.30;;
39276;SDS011;63149;48.086;-1.606;2022-09-09T15:51:59;4.88;;;1.15;;
39276;SDS011;63149;48.086;-1.606;2022-09-09T15:54:28;6.47;;;1.85;;
39276;SDS011;63149;48.086;-1.606;2022-09-09T15:57:00;8.07;;;1.30;;
39276;SDS011;63149;48.086;-1.606;2022-09-09T15:59:29;8.65;;;1.30;;
39276;SDS011;63149;48.086;-1.606;2022-09-09T16:01:58;4.80;;;1.73;;
39276;SDS011;63149;48.086;-1.606;2022-09-09T16:04:26;3.38;;;0.80;;
39276;SDS011;63149;48.086;-1.606;2022-09-09T16:06:54;5.30;;;1.50;;
39276;SDS011;63149;48.086;-1.606;2022-09-09T16:09:23;4.53;;;1.27;;
39276;SDS011;63149;48.086;-1.606;2022-09-09T16:11:51;8.15;;;1.40;;
39276;SDS011;63149;48.086;-1.606;2022-09-09T16:14:19;6.28;;;1.27;;
39276;SDS011;63149;48.086;-1.606;2022-09-09T16:16:47;4.95;;;1.40;;
39276;SDS011;63149;48.086;-1.606;2022-09-09T16:19:14;5.60;;;1.67;;
39276;SDS011;63149;48.086;-1.606;2022-09-09T16:21:42;6.10;;;1.70;;
39276;SDS011;63149;48.086;-1.606;2022-09-09T16:24:10;6.25;;;1.45;;
39276;SDS011;63149;48.086;-1.606;2022-09-09T16:26:39;8.52;;;2.15;;
39276;SDS011;63149;48.086;-1.606;2022-09-09T16:29:10;2.53;;;0.90;;
39276;SDS011;63149;48.086;-1.606;2022-09-09T16:31:39;8.00;;;1.20;;
39276;SDS011;63149;48.086;-1.606;2022-09-09T16:34:07;4.22;;;1.40;;
39276;SDS011;63149;48.086;-1.606;2022-09-09T16:36:35;6.82;;;1.42;;
39276;SDS011;63149;48.086;-1.606;2022-09-09T16:39:04;7.55;;;1.35;;
39276;SDS011;63149;48.086;-1.606;2022-09-09T16:41:34;7.18;;;1.52;;
39276;SDS011;63149;48.086;-1.606;2022-09-09T16:44:02;6.18;;;1.05;;
39276;SDS011;63149;48.086;-1.606;2022-09-09T16:46:30;7.93;;;1.58;;
39276;SDS011;63149;48.086;-1.606;2022-09-09T16:49:00;7.13;;;1.52;;
39276;SDS011;63149;48.086;-1.606;2022-09-09T16:51:30;11.38;;;1.70;;
39276;SDS011;63149;48.086;-1.606;2022-09-09T16:54:00;7.03;;;1.17;;
39276;SDS011;63149;48.086;-1.606;2022-09-09T16:56:29;10.20;;;1.85;;
39276;SDS011;63149;48.086;-1.606;2022-09-09T16:58:58;5.25;;;1.10;;
39276;SDS011;63149;48.086;-1.606;2022-09-09T17:01:28;9.07;;;1.63;;
39276;SDS011;63149;48.086;-1.606;2022-09-09T17:03:57;6.13;;;1.38;;
39276;SDS011;63149;48.086;-1.606;2022-09-09T17:06:27;8.13;;;2.17;;
39276;SDS011;63149;48.086;-1.606;2022-09-09T17:08:55;7.53;;;1.63;;
39276;SDS011;63149;48.086;-1.606;2022-09-09T17:11:22;8.15;;;1.63;;
39276;SDS011;63149;48.086;-1.606;2022-09-09T17:13:50;8.68;;;2.10;;
39276;SDS011;63149;48.086;-1.606;2022-09-09T17:16:20;8.50;;;1.55;;
39276;SDS011;63149;48.086;-1.606;2022-09-09T17:18:48;9.82;;;2.22;;
39276;SDS011;63149;48.086;-1.606;2022-09-09T17:21:16;10.82;;;1.63;;
39276;SDS011;63149;48.086;-1.606;2022-09-09T17:23:46;7.63;;;1.40;;
39276;SDS011;63149;48.086;-1.606;2022-09-09T17:26:13;9.40;;;1.98;;
39276;SDS011;63149;48.086;-1.606;2022-09-09T17:28:42;5.28;;;1.52;;
39276;SDS011;63149;48.086;-1.606;2022-09-09T17:31:11;4.90;;;1.50;;
39276;SDS011;63149;48.086;-1.606;2022-09-09T17:33:40;8.02;;;1.80;;
39276;SDS011;63149;48.086;-1.606;2022-09-09T17:36:08;5.90;;;1.58;;
39276;SDS011;63149;48.086;-1.606;2022-09-09T17:38:37;9.77;;;1.52;;
39276;SDS011;63149;48.086;-1.606;2022-09-09T17:41:07;7.32;;;2.00;;
39276;SDS011;63149;48.086;-1.606;2022-09-09T17:43:35;4.53;;;0.90;;
39276;SDS011;63149;48.086;-1.606;2022-09-09T17:46:06;2.30;;;0.80;;
39276;SDS011;63149;48.086;-1.606;2022-09-09T17:48:33;1.63;;;0.90;;
39276;SDS011;63149;48.086;-1.606;2022-09-09T17:51:02;3.47;;;1.20;;
39276;SDS011;63149;48.086;-1.606;2022-09-09T17:53:30;7.22;;;1.23;;
39276;SDS011;63149;48.086;-1.606;2022-09-09T17:56:02;4.85;;;1.42;;
39276;SDS011;63149;48.086;-1.606;2022-09-09T17:58:31;7.53;;;1.55;;
39276;SDS011;63149;48.086;-1.606;2022-09-09T18:01:01;6.00;;;1.25;;
39276;SDS011;63149;48.086;-1.606;2022-09-09T18:03:30;2.58;;;1.25;;
39276;SDS011;63149;48.086;-1.606;2022-09-09T18:06:01;4.40;;;1.15;;
39276;SDS011;63149;48.086;-1.606;2022-09-09T18:10:55;7.28;;;1.45;;
39276;SDS011;63149;48.086;-1.606;2022-09-09T18:13:22;4.75;;;1.45;;
39276;SDS011;63149;48.086;-1.606;2022-09-09T18:15:51;3.42;;;1.08;;
39276;SDS011;63149;48.086;-1.606;2022-09-09T18:18:18;9.15;;;0.90;;
39276;SDS011;63149;48.086;-1.606;2022-09-09T18:20:45;7.60;;;1.02;;
39276;SDS011;63149;48.086;-1.606;2022-09-09T18:23:12;4.82;;;1.08;;
39276;SDS011;63149;48.086;-1.606;2022-09-09T18:25:39;7.55;;;2.20;;
39276;SDS011;63149;48.086;-1.606;2022-09-09T18:28:07;5.65;;;1.63;;
39276;SDS011;63149;48.086;-1.606;2022-09-09T18:30:37;4.47;;;1.20;;
39276;SDS011;63149;48.086;-1.606;2022-09-09T18:33:06;5.18;;;1.48;;
39276;SDS011;63149;48.086;-1.606;2022-09-09T18:35:34;6.05;;;1.27;;
39276;SDS011;63149;48.086;-1.606;2022-09-09T18:38:01;9.25;;;1.52;;
39276;SDS011;63149;48.086;-1.606;2022-09-09T18:40:28;5.93;;;1.60;;
39276;SDS011;63149;48.086;-1.606;2022-09-09T18:42:56;7.95;;;1.80;;
39276;SDS011;63149;48.086;-1.606;2022-09-09T18:45:23;8.23;;;1.80;;
39276;SDS011;63149;48.086;-1.606;2022-09-09T18:47:50;6.20;;;1.88;;
39276;SDS011;63149;48.086;-1.606;2022-09-09T18:50:22;6.05;;;1.48;;
39276;SDS011;63149;48.086;-1.606;2022-09-09T18:52:49;6.72;;;1.20;;
39276;SDS011;63149;48.086;-1.606;2022-09-09T18:55:16;6.57;;;1.52;;
39276;SDS011;63149;48.086;-1.606;2022-09-09T18:57:43;3.38;;;1.25;;
39276;SDS011;63149;48.086;-1.606;2022-09-09T19:00:12;10.70;;;1.63;;
39276;SDS011;63149;48.086;-1.606;2022-09-09T19:02:39;5.85;;;1.35;;
39276;SDS011;63149;48.086;-1.606;2022-09-09T19:05:07;8.25;;;1.50;;
39276;SDS011;63149;48.086;-1.606;2022-09-09T19:07:35;9.27;;;1.77;;
39276;SDS011;63149;48.086;-1.606;2022-09-09T19:10:03;6.72;;;1.50;;
39276;SDS011;63149;48.086;-1.606;2022-09-09T19:12:31;7.28;;;2.03;;
39276;SDS011;63149;48.086;-1.606;2022-09-09T19:14:58;6.78;;;1.65;;
39276;SDS011;63149;48.086;-1.606;2022-09-09T19:17:25;7.63;;;1.67;;
39276;SDS011;63149;48.086;-1.606;2022-09-09T19:19:54;7.25;;;1.65;;
39276;SDS011;63149;48.086;-1.606;2022-09-09T19:22:21;7.63;;;1.80;;
39276;SDS011;63149;48.086;-1.606;2022-09-09T19:24:49;3.75;;;1.58;;
39276;SDS011;63149;48.086;-1.606;2022-09-09T19:27:16;5.53;;;1.95;;
39276;SDS011;63149;48.086;-1.606;2022-09-09T19:29:43;6.63;;;2.33;;
39276;SDS011;63149;48.086;-1.606;2022-09-09T19:32:12;10.15;;;1.55;;
39276;SDS011;63149;48.086;-1.606;2022-09-09T19:34:39;8.77;;;1.73;;
39276;SDS011;63149;48.086;-1.606;2022-09-09T19:37:08;7.63;;;1.60;;
39276;SDS011;63149;48.086;-1.606;2022-09-09T19:39:35;3.13;;;1.40;;
39276;SDS011;63149;48.086;-1.606;2022-09-09T19:42:03;6.72;;;1.73;;
39276;SDS011;63149;48.086;-1.606;2022-09-09T19:44:30;5.63;;;1.27;;
39276;SDS011;63149;48.086;-1.606;2022-09-09T19:46:57;11.43;;;2.13;;
39276;SDS011;63149;48.086;-1.606;2022-09-09T19:49:25;5.32;;;1.90;;
39276;SDS011;63149;48.086;-1.606;2022-09-09T19:51:52;7.63;;;1.90;;
39276;SDS011;63149;48.086;-1.606;2022-09-09T19:54:19;5.88;;;1.70;;
39276;SDS011;63149;48.086;-1.606;2022-09-09T19:56:47;6.65;;;2.10;;
39276;SDS011;63149;48.086;-1.606;2022-09-09T19:59:15;9.63;;;2.00;;